Time;durP1;ratioP1;P1;durP2;ratioP2;P2;SDS_P1;SDS_P2;PMS_P1;PMS_P2;Temp;Humidity;BMP_temperature;BMP_pressure;BME280_temperature;BME280_humidity;BME280_pressure;Samples;Min_cycle;Max_cycle;Signal;HPM_P1;HPM_P2
2021/11/15 00:01:43;;;;;;;34.22;19.95;;;11.20;99.90;;;;;;5065144;28;20047;-72
2021/11/15 00:04:46;;;;;;;43.53;26.48;;;11.20;99.90;;;;;;5060985;28;20036;-72
2021/11/15 00:07:51;;;;;;;34.03;20.90;;;11.20;99.90;;;;;;5062685;28;20044;-72
2021/11/15 00:10:55;;;;;;;42.33;28.40;;;11.30;99.90;;;;;;5061661;28;20063;-72
2021/11/15 00:13:59;;;;;;;44.55;32.03;;;11.20;99.90;;;;;;5066224;28;20052;-71
2021/11/15 00:17:04;;;;;;;33.97;20.15;;;11.20;99.90;;;;;;5062574;28;20051;-71
2021/11/15 00:20:08;;;;;;;44.40;29.73;;;11.20;99.90;;;;;;5062717;28;20040;-71
2021/11/15 00:23:12;;;;;;;34.75;20.77;;;11.20;99.90;;;;;;5063625;28;20107;-72
2021/11/15 00:26:16;;;;;;;35.88;22.30;;;11.20;99.90;;;;;;5059814;28;20128;-72
2021/11/15 00:29:21;;;;;;;42.30;24.48;;;11.20;99.90;;;;;;5056681;28;20051;-72
2021/11/15 00:32:26;;;;;;;34.90;23.05;;;11.20;99.90;;;;;;5060934;28;20053;-71
2021/11/15 00:35:30;;;;;;;36.00;21.88;;;11.10;99.90;;;;;;5064999;28;20044;-71
2021/11/15 00:38:34;;;;;;;32.55;20.55;;;11.10;99.90;;;;;;5062383;28;20068;-72
2021/11/15 00:41:39;;;;;;;38.13;22.63;;;11.10;99.90;;;;;;5066669;28;20047;-71
2021/11/15 00:44:43;;;;;;;43.00;23.60;;;11.10;99.90;;;;;;5064265;28;20047;-71
2021/11/15 00:47:47;;;;;;;38.63;23.42;;;11.00;99.90;;;;;;5067487;28;20390;-71
2021/11/15 00:50:51;;;;;;;41.05;24.20;;;11.10;99.90;;;;;;5060481;28;20044;-72
2021/11/15 00:53:56;;;;;;;39.78;22.92;;;11.10;99.90;;;;;;5068353;28;20044;-72
2021/11/15 00:57:04;;;;;;;40.88;24.65;;;11.10;99.90;;;;;;5059940;28;20044;-72
2021/11/15 01:00:11;;;;;;;60.67;33.65;;;11.10;99.90;;;;;;5058778;28;20502;-72
2021/11/15 01:03:16;;;;;;;50.58;31.38;;;11.10;99.90;;;;;;5057872;28;20399;-72
2021/11/15 01:06:20;;;;;;;33.65;20.42;;;11.20;99.90;;;;;;5062318;28;20073;-72
2021/11/15 01:09:26;;;;;;;35.35;21.58;;;11.10;99.90;;;;;;5058248;28;20398;-71
2021/11/15 01:12:31;;;;;;;37.38;21.75;;;11.10;99.90;;;;;;5058635;28;20044;-72
2021/11/15 01:15:35;;;;;;;34.83;20.30;;;11.10;99.90;;;;;;5066080;28;20048;-72
2021/11/15 01:18:43;;;;;;;37.85;20.60;;;11.20;99.90;;;;;;5060546;28;20044;-72
2021/11/15 01:21:48;;;;;;;35.40;20.13;;;11.20;99.90;;;;;;5059617;28;20040;-72
2021/11/15 01:24:52;;;;;;;37.22;22.50;;;11.20;99.90;;;;;;5059874;28;20040;-72
2021/11/15 01:27:56;;;;;;;41.33;22.90;;;11.20;99.90;;;;;;5061114;28;20064;-71
2021/11/15 01:31:01;;;;;;;40.20;22.95;;;11.20;99.90;;;;;;5060189;28;20490;-71
2021/11/15 01:34:06;;;;;;;41.70;23.48;;;11.20;99.90;;;;;;5066755;28;20163;-72
2021/11/15 01:37:11;;;;;;;40.92;22.45;;;11.30;99.90;;;;;;5056943;28;20498;-72
2021/11/15 01:40:19;;;;;;;41.45;24.17;;;11.30;99.90;;;;;;5060743;28;20500;-72
2021/11/15 01:43:23;;;;;;;47.70;27.38;;;11.30;99.90;;;;;;5058318;28;20044;-72
2021/11/15 01:46:27;;;;;;;47.08;26.83;;;11.30;99.90;;;;;;5058294;28;20084;-72
2021/11/15 01:49:32;;;;;;;38.10;23.02;;;11.40;99.90;;;;;;5058338;28;20510;-72
2021/11/15 01:52:37;;;;;;;31.75;19.40;;;11.40;99.90;;;;;;5061850;28;20331;-72
2021/11/15 01:55:43;;;;;;;33.83;19.88;;;11.40;99.90;;;;;;5058078;28;20396;-72
2021/11/15 01:58:46;;;;;;;33.33;21.23;;;11.40;99.90;;;;;;5057158;28;20044;-72
2021/11/15 02:01:51;;;;;;;34.22;19.08;;;11.40;99.90;;;;;;5063418;28;20039;-72
2021/11/15 02:04:57;;;;;;;40.60;19.92;;;11.40;99.90;;;;;;5065781;28;20387;-72
2021/11/15 02:08:02;;;;;;;33.28;19.90;;;11.50;99.90;;;;;;5060496;28;20040;-72
2021/11/15 02:11:07;;;;;;;35.80;19.13;;;11.50;99.90;;;;;;5061728;28;20043;-72
2021/11/15 02:14:11;;;;;;;37.67;21.55;;;11.40;99.90;;;;;;5059208;28;20043;-72
2021/11/15 02:17:15;;;;;;;32.83;18.92;;;11.30;99.90;;;;;;5058054;28;20052;-72
2021/11/15 02:20:25;;;;;;;35.88;20.65;;;11.40;99.90;;;;;;5063080;28;20043;-72
2021/11/15 02:23:33;;;;;;;40.50;21.30;;;11.40;99.90;;;;;;5064970;28;20044;-71
2021/11/15 02:26:36;;;;;;;33.22;18.23;;;11.40;99.90;;;;;;5058427;28;20239;-71
2021/11/15 02:29:40;;;;;;;34.63;18.98;;;11.40;99.90;;;;;;5057588;28;20655;-71
2021/11/15 02:32:46;;;;;;;31.90;19.73;;;11.40;99.90;;;;;;5059841;28;20524;-72
2021/11/15 02:35:50;;;;;;;29.15;17.58;;;11.40;99.90;;;;;;5062646;28;20056;-72
2021/11/15 02:38:55;;;;;;;33.80;19.35;;;11.40;99.90;;;;;;5059107;28;20040;-72
2021/11/15 02:41:59;;;;;;;33.08;19.70;;;11.40;99.90;;;;;;5060147;28;20052;-72
2021/11/15 02:45:06;;;;;;;33.63;19.05;;;11.40;99.90;;;;;;5061194;28;20052;-72
2021/11/15 02:48:10;;;;;;;27.27;17.63;;;11.40;99.90;;;;;;5056989;28;20048;-72
2021/11/15 02:51:15;;;;;;;30.17;16.83;;;11.40;99.90;;;;;;5057607;28;20035;-72
2021/11/15 02:54:21;;;;;;;32.97;18.25;;;11.40;99.90;;;;;;5057275;28;20035;-72
2021/11/15 02:57:27;;;;;;;30.67;19.02;;;11.50;99.90;;;;;;5055569;28;20102;-72
2021/11/15 03:00:44;;;;;;;33.50;18.52;;;11.40;99.90;;;;;;5054862;28;20052;-72
2021/11/15 03:03:49;;;;;;;30.42;18.27;;;11.40;99.90;;;;;;5063464;28;20528;-72
2021/11/15 03:06:52;;;;;;;33.45;17.90;;;11.40;99.90;;;;;;5066953;28;20506;-72
2021/11/15 03:09:56;;;;;;;31.35;19.00;;;11.30;99.90;;;;;;5061034;28;20411;-72
2021/11/15 03:13:02;;;;;;;38.55;20.42;;;11.20;99.90;;;;;;5059914;28;20052;-72
2021/11/15 03:16:06;;;;;;;29.70;18.50;;;11.20;99.90;;;;;;5060694;28;20513;-72
2021/11/15 03:19:11;;;;;;;35.28;19.58;;;11.20;99.90;;;;;;5060161;28;20044;-71
2021/11/15 03:22:15;;;;;;;35.03;19.00;;;11.30;99.90;;;;;;5061143;28;20040;-72
2021/11/15 03:25:22;;;;;;;36.28;20.00;;;11.20;99.90;;;;;;5054801;28;20044;-71
2021/11/15 03:28:32;;;;;;;38.65;20.08;;;11.20;99.90;;;;;;5061943;28;20056;-72
2021/11/15 03:31:38;;;;;;;34.67;20.15;;;11.20;99.90;;;;;;5067755;28;20430;-72
2021/11/15 03:34:42;;;;;;;33.22;18.25;;;11.20;99.90;;;;;;5061059;28;20048;-72
2021/11/15 03:37:46;;;;;;;35.40;19.60;;;11.20;99.90;;;;;;5060064;28;20040;-72
2021/11/15 03:40:50;;;;;;;37.58;20.33;;;11.20;99.90;;;;;;5059397;28;20060;-71
2021/11/15 03:43:55;;;;;;;34.72;19.85;;;11.20;99.90;;;;;;5067833;28;20679;-72
2021/11/15 03:46:59;;;;;;;36.50;19.33;;;11.20;99.90;;;;;;5068167;28;20051;-72
2021/11/15 03:50:06;;;;;;;35.10;19.05;;;11.20;99.90;;;;;;5061679;28;20601;-72
2021/11/15 03:53:13;;;;;;;33.83;19.75;;;11.20;99.90;;;;;;5062520;28;20044;-72
2021/11/15 03:56:22;;;;;;;36.97;19.25;;;11.10;99.90;;;;;;5060677;28;20044;-72
2021/11/15 03:59:26;;;;;;;33.97;19.25;;;11.00;99.90;;;;;;5066555;28;20040;-72
2021/11/15 04:02:33;;;;;;;33.97;19.75;;;11.10;99.90;;;;;;5066851;28;20051;-72
2021/11/15 04:05:38;;;;;;;30.63;17.95;;;11.00;99.90;;;;;;5062113;28;20057;-72
2021/11/15 04:08:43;;;;;;;38.25;19.92;;;11.10;99.90;;;;;;5059924;28;20040;-72
2021/11/15 04:11:47;;;;;;;30.50;17.52;;;11.10;99.90;;;;;;5064183;28;20047;-72
2021/11/15 04:14:52;;;;;;;30.20;17.52;;;11.10;99.90;;;;;;5062521;28;20048;-72
2021/11/15 04:17:58;;;;;;;32.15;16.98;;;11.10;99.90;;;;;;5068174;28;20233;-72
2021/11/15 04:21:03;;;;;;;27.58;17.27;;;11.20;99.90;;;;;;5065588;28;20513;-72
2021/11/15 04:24:09;;;;;;;33.85;18.08;;;11.20;99.90;;;;;;5063146;28;20047;-72
2021/11/15 04:27:14;;;;;;;27.00;17.30;;;11.10;99.90;;;;;;5064580;28;20383;-72
2021/11/15 04:30:18;;;;;;;30.67;17.75;;;11.10;99.90;;;;;;5060323;28;20044;-72
2021/11/15 04:33:23;;;;;;;26.85;16.50;;;11.20;99.90;;;;;;5059610;28;20055;-72
2021/11/15 04:36:27;;;;;;;27.67;16.10;;;11.20;99.90;;;;;;5059771;28;20075;-72
2021/11/15 04:39:32;;;;;;;27.95;16.63;;;11.20;99.90;;;;;;5066214;28;20047;-72
2021/11/15 04:42:36;;;;;;;29.15;18.63;;;11.20;99.90;;;;;;5063722;28;20047;-72
2021/11/15 04:45:40;;;;;;;29.50;17.13;;;11.20;99.90;;;;;;5058374;28;20044;-72
2021/11/15 04:48:44;;;;;;;35.55;19.90;;;11.20;99.90;;;;;;5059946;28;20068;-72
2021/11/15 04:51:50;;;;;;;30.08;17.38;;;11.10;99.90;;;;;;5067629;28;20047;-72
2021/11/15 04:54:54;;;;;;;33.53;18.88;;;11.00;99.90;;;;;;5061513;28;20361;-72
2021/11/15 04:57:58;;;;;;;37.53;19.65;;;11.00;99.90;;;;;;5061963;28;20048;-72
2021/11/15 05:01:03;;;;;;;35.95;22.15;;;11.00;99.90;;;;;;5064717;28;20056;-72
2021/11/15 05:04:07;;;;;;;33.53;19.27;;;10.90;99.90;;;;;;5059869;28;20277;-72
2021/11/15 05:07:12;;;;;;;56.78;26.02;;;10.90;99.90;;;;;;5063385;28;20039;-71
2021/11/15 05:10:16;;;;;;;42.03;20.67;;;11.00;99.90;;;;;;5067437;28;20035;-72
2021/11/15 05:13:20;;;;;;;41.30;20.60;;;11.00;99.90;;;;;;5053436;28;20063;-72
2021/11/15 05:16:24;;;;;;;34.58;18.77;;;11.00;99.90;;;;;;5058573;28;20497;-72
2021/11/15 05:19:28;;;;;;;31.48;18.13;;;11.10;99.90;;;;;;5065502;28;20036;-71
2021/11/15 05:22:32;;;;;;;32.03;17.98;;;11.10;99.90;;;;;;5059126;28;20051;-71
2021/11/15 05:25:36;;;;;;;29.75;17.02;;;11.10;99.90;;;;;;5064982;28;20044;-71
2021/11/15 05:28:40;;;;;;;30.50;16.52;;;11.10;99.90;;;;;;5059380;28;20039;-71
2021/11/15 05:31:45;;;;;;;26.48;14.57;;;11.10;99.90;;;;;;5058526;28;20048;-71
2021/11/15 05:34:50;;;;;;;27.75;15.07;;;11.30;99.90;;;;;;5066773;28;20051;-71
2021/11/15 05:37:56;;;;;;;29.35;14.70;;;11.30;99.90;;;;;;5058604;28;20048;-71
2021/11/15 05:41:01;;;;;;;27.27;15.30;;;11.30;99.90;;;;;;5059348;28;20048;-72
2021/11/15 05:44:05;;;;;;;27.88;15.45;;;11.30;99.90;;;;;;5065700;28;20036;-71
2021/11/15 05:47:09;;;;;;;26.10;14.68;;;11.20;99.90;;;;;;5054778;28;20387;-72
2021/11/15 05:50:14;;;;;;;27.42;15.40;;;11.30;99.90;;;;;;5058401;28;20068;-72
2021/11/15 05:53:18;;;;;;;28.52;15.10;;;11.30;99.90;;;;;;5060737;28;20039;-72
2021/11/15 05:56:23;;;;;;;29.80;15.93;;;11.30;99.90;;;;;;5063665;28;20048;-72
2021/11/15 05:59:28;;;;;;;26.23;15.45;;;11.30;99.90;;;;;;5061890;28;20040;-72
2021/11/15 06:02:32;;;;;;;24.83;15.25;;;11.30;99.90;;;;;;5058028;28;20399;-72
2021/11/15 06:05:36;;;;;;;24.77;14.98;;;11.30;99.90;;;;;;5062030;28;20044;-72
2021/11/15 06:08:40;;;;;;;24.13;14.05;;;11.30;99.90;;;;;;5057365;28;20271;-72
2021/11/15 06:11:45;;;;;;;25.17;14.15;;;11.30;99.90;;;;;;5058282;28;20047;-72
2021/11/15 06:14:49;;;;;;;22.88;13.60;;;11.30;99.90;;;;;;5061612;28;20056;-72
2021/11/15 06:17:53;;;;;;;20.52;13.40;;;11.30;99.90;;;;;;5066345;28;20478;-72
2021/11/15 06:20:59;;;;;;;27.67;13.73;;;11.30;99.90;;;;;;5055369;28;20052;-72
2021/11/15 06:24:04;;;;;;;28.02;15.13;;;11.20;99.90;;;;;;5059812;28;20048;-72
2021/11/15 06:27:08;;;;;;;24.73;14.25;;;11.30;99.90;;;;;;5059031;28;20052;-72
2021/11/15 06:30:16;;;;;;;26.65;14.80;;;11.30;99.90;;;;;;5059614;28;20040;-72
2021/11/15 06:33:20;;;;;;;26.95;15.45;;;11.30;99.90;;;;;;5057001;28;20044;-72
2021/11/15 06:36:24;;;;;;;23.02;14.70;;;11.20;99.90;;;;;;5058466;28;20494;-72
2021/11/15 06:39:29;;;;;;;27.92;15.93;;;11.20;99.90;;;;;;5064229;28;20051;-72
2021/11/15 06:42:33;;;;;;;25.55;16.02;;;11.20;99.90;;;;;;5059068;28;20055;-72
2021/11/15 06:45:37;;;;;;;27.75;15.30;;;11.20;99.90;;;;;;5051747;28;20044;-72
2021/11/15 06:48:42;;;;;;;26.80;15.70;;;11.20;99.90;;;;;;5058048;28;20056;-72
2021/11/15 06:51:46;;;;;;;29.48;15.43;;;11.20;99.90;;;;;;5057641;28;20054;-72
2021/11/15 06:54:50;;;;;;;24.17;14.80;;;11.20;99.90;;;;;;5060989;28;20048;-72
2021/11/15 06:57:54;;;;;;;27.52;16.20;;;11.20;99.90;;;;;;5060344;28;20079;-72
2021/11/15 07:01:00;;;;;;;26.88;15.73;;;11.20;99.90;;;;;;5060826;28;20495;-72
2021/11/15 07:04:06;;;;;;;25.92;14.63;;;11.30;99.90;;;;;;5061008;28;20036;-72
2021/11/15 07:07:11;;;;;;;28.23;14.50;;;11.30;99.90;;;;;;5059345;28;20047;-72
2021/11/15 07:10:15;;;;;;;28.17;14.38;;;11.40;99.90;;;;;;5064229;28;20055;-72
2021/11/15 07:13:20;;;;;;;21.98;14.30;;;11.50;99.90;;;;;;5060147;28;20384;-72
2021/11/15 07:16:24;;;;;;;29.23;16.13;;;11.50;99.90;;;;;;5058351;28;20404;-72
2021/11/15 07:19:28;;;;;;;29.52;17.15;;;11.60;99.90;;;;;;5061874;28;20051;-72
2021/11/15 07:22:33;;;;;;;24.60;15.60;;;11.70;99.90;;;;;;5060831;28;20044;-72
2021/11/15 07:25:38;;;;;;;24.15;15.40;;;11.80;99.90;;;;;;5066492;28;20047;-72
2021/11/15 07:28:43;;;;;;;23.27;14.73;;;11.90;99.90;;;;;;5060866;28;20043;-73
2021/11/15 07:31:47;;;;;;;21.02;14.75;;;12.10;99.90;;;;;;5056578;28;20047;-72
2021/11/15 07:34:52;;;;;;;19.83;12.85;;;12.20;99.90;;;;;;5071180;28;20048;-72
2021/11/15 07:37:57;;;;;;;19.73;13.38;;;12.40;99.90;;;;;;5059171;28;20362;-72
2021/11/15 07:41:01;;;;;;;21.48;12.85;;;12.50;99.90;;;;;;5061394;28;20036;-73
2021/11/15 07:44:05;;;;;;;20.63;12.05;;;12.50;99.90;;;;;;5067632;28;20032;-72
2021/11/15 07:47:10;;;;;;;19.70;12.23;;;12.60;99.90;;;;;;5059368;28;20052;-72
2021/11/15 07:50:15;;;;;;;20.02;13.05;;;12.60;99.90;;;;;;5064915;28;20055;-72
2021/11/15 07:53:19;;;;;;;18.52;12.68;;;12.70;99.90;;;;;;5063935;28;20067;-72
2021/11/15 07:56:25;;;;;;;15.82;11.75;;;12.80;99.90;;;;;;5061163;28;20048;-73
2021/11/15 07:59:28;;;;;;;20.70;12.95;;;12.80;99.90;;;;;;5061691;28;20091;-72
2021/11/15 08:02:32;;;;;;;14.90;10.82;;;12.90;99.90;;;;;;5058542;28;20519;-73
2021/11/15 08:05:37;;;;;;;16.23;11.20;;;12.90;99.90;;;;;;5064313;28;20040;-72
2021/11/15 08:08:42;;;;;;;20.15;12.13;;;13.00;99.90;;;;;;5059588;28;20047;-72
2021/11/15 08:11:51;;;;;;;21.25;12.10;;;13.00;99.90;;;;;;5057912;28;20066;-72
2021/11/15 08:15:00;;;;;;;17.52;11.52;;;13.20;99.90;;;;;;5065452;28;20047;-72
2021/11/15 08:18:05;;;;;;;21.75;13.55;;;13.30;99.90;;;;;;5067730;28;20039;-72
2021/11/15 08:21:12;;;;;;;18.02;12.45;;;13.40;99.90;;;;;;5057005;28;20056;-72
2021/11/15 08:24:18;;;;;;;16.23;11.98;;;13.50;99.90;;;;;;5063766;28;20387;-72
2021/11/15 08:27:22;;;;;;;18.30;12.27;;;13.70;99.90;;;;;;5059622;28;20051;-72
2021/11/15 08:30:26;;;;;;;20.65;12.63;;;13.80;99.90;;;;;;5063064;28;20044;-72
2021/11/15 08:33:32;;;;;;;16.70;10.60;;;14.00;99.90;;;;;;5057559;28;20499;-72
2021/11/15 08:36:40;;;;;;;13.70;9.20;;;14.10;99.90;;;;;;5056929;28;20035;-72
2021/11/15 08:39:44;;;;;;;15.50;9.55;;;14.20;99.90;;;;;;5061059;28;20471;-72
2021/11/15 08:42:48;;;;;;;12.50;8.85;;;14.20;99.90;;;;;;5061754;28;20060;-72
2021/11/15 08:45:52;;;;;;;12.98;8.48;;;14.30;99.90;;;;;;5067165;28;20047;-72
2021/11/15 08:49:00;;;;;;;14.57;8.75;;;14.40;99.90;;;;;;5055172;28;20398;-72
2021/11/15 08:52:05;;;;;;;11.15;8.85;;;14.50;99.90;;;;;;5067015;28;20043;-72
2021/11/15 08:55:09;;;;;;;12.52;8.70;;;14.60;99.90;;;;;;5063068;28;20135;-72
2021/11/15 08:58:13;;;;;;;16.65;8.93;;;14.60;99.90;;;;;;5062151;28;20040;-72
2021/11/15 09:01:17;;;;;;;19.65;8.85;;;14.80;99.90;;;;;;5056544;28;20530;-72
2021/11/15 09:04:22;;;;;;;15.60;8.48;;;14.90;99.90;;;;;;5062606;28;20494;-72
2021/11/15 09:07:26;;;;;;;14.25;8.23;;;15.00;99.90;;;;;;5057046;28;20059;-73
2021/11/15 09:10:30;;;;;;;13.07;8.27;;;15.20;99.90;;;;;;5060067;28;20386;-72
2021/11/15 09:13:36;;;;;;;10.98;7.93;;;15.50;99.90;;;;;;5058698;28;20047;-72
2021/11/15 09:16:43;;;;;;;13.25;7.30;;;15.60;99.90;;;;;;5057598;28;20040;-72
2021/11/15 09:19:48;;;;;;;8.40;6.40;;;15.80;99.90;;;;;;5062950;28;20028;-73
2021/11/15 09:22:52;;;;;;;11.07;6.53;;;15.90;99.90;;;;;;5057848;28;20044;-73
2021/11/15 09:25:56;;;;;;;10.65;7.18;;;15.90;99.90;;;;;;5060695;28;20383;-72
2021/11/15 09:29:02;;;;;;;14.40;8.10;;;16.00;99.90;;;;;;5057709;28;20050;-73
2021/11/15 09:32:07;;;;;;;11.00;6.82;;;15.80;99.90;;;;;;5063471;28;20048;-73
2021/11/15 09:35:11;;;;;;;8.43;6.88;;;15.60;99.90;;;;;;5058972;28;20043;-72
2021/11/15 09:38:20;;;;;;;14.93;8.93;;;15.60;99.90;;;;;;5059569;28;20379;-73
2021/11/15 09:41:26;;;;;;;11.25;7.97;;;15.70;99.90;;;;;;5061343;28;20043;-73
2021/11/15 09:44:31;;;;;;;12.82;8.43;;;15.70;99.90;;;;;;5054224;28;20035;-73
2021/11/15 09:47:40;;;;;;;14.57;8.27;;;15.70;99.90;;;;;;5059554;28;20059;-73
2021/11/15 09:50:45;;;;;;;14.13;7.35;;;15.70;99.90;;;;;;5065096;28;20038;-72
2021/11/15 09:53:49;;;;;;;13.05;7.75;;;15.50;99.90;;;;;;5056026;28;20119;-72
2021/11/15 09:56:54;;;;;;;11.80;7.88;;;15.50;99.90;;;;;;5062218;28;20044;-73
2021/11/15 09:59:58;;;;;;;12.85;7.28;;;15.40;99.90;;;;;;5060773;28;20043;-72
2021/11/15 10:03:02;;;;;;;11.85;7.38;;;15.40;99.90;;;;;;5065062;28;20051;-72
2021/11/15 10:06:07;;;;;;;11.35;8.20;;;15.50;99.90;;;;;;5062352;28;20396;-72
2021/11/15 10:09:11;;;;;;;9.68;7.10;;;15.60;99.90;;;;;;5059482;28;20047;-72
2021/11/15 10:12:15;;;;;;;11.20;7.28;;;15.60;99.90;;;;;;5058259;28;20043;-72
2021/11/15 10:15:19;;;;;;;11.05;7.55;;;15.70;99.90;;;;;;5059717;28;20044;-72
2021/11/15 10:18:32;;;;;;;13.60;7.35;;;15.80;99.90;;;;;;5059869;28;20786;-72
2021/11/15 10:21:42;;;;;;;13.43;8.18;;;15.70;99.90;;;;;;5060846;28;20031;-73
2021/11/15 10:24:49;;;;;;;10.52;7.45;;;15.80;99.90;;;;;;5056359;28;20499;-73
2021/11/15 10:28:10;;;;;;;11.55;7.18;;;15.90;99.90;;;;;;5058763;28;20383;-73
2021/11/15 10:31:45;;;;;;;9.85;7.30;;;16.10;99.90;;;;;;5060273;28;20052;-72
2021/11/15 10:34:53;;;;;;;14.43;7.53;;;16.30;99.90;;;;;;5059038;28;20056;-73
2021/11/15 10:37:57;;;;;;;10.35;7.53;;;16.40;99.90;;;;;;5067335;28;20403;-72
2021/11/15 10:41:16;;;;;;;11.15;7.40;;;16.50;99.90;;;;;;5063499;28;20379;-72
2021/11/15 10:44:20;;;;;;;13.35;7.13;;;16.50;99.90;;;;;;5064775;28;20037;-73
2021/11/15 10:47:54;;;;;;;14.00;9.10;;;16.60;99.90;;;;;;5062666;28;20059;-73
2021/11/15 10:51:02;;;;;;;11.52;8.20;;;16.60;99.90;;;;;;5064804;28;20044;-72
2021/11/15 10:54:35;;;;;;;15.75;8.90;;;16.90;99.90;;;;;;5066365;28;20410;-73
2021/11/15 10:57:41;;;;;;;13.93;8.48;;;17.20;99.90;;;;;;5065495;28;20036;-73
2021/11/15 11:00:55;;;;;;;12.82;8.50;;;17.50;99.90;;;;;;5059235;28;20040;-72
2021/11/15 11:04:16;;;;;;;11.23;7.28;;;18.20;99.90;;;;;;5057732;28;20036;-73
2021/11/15 11:07:22;;;;;;;9.32;5.68;;;19.10;99.90;;;;;;5058044;28;20063;-73
2021/11/15 11:10:53;;;;;;;12.40;6.53;;;21.00;99.90;;;;;;5042314;28;20071;-73
2021/11/15 11:14:02;;;;;;;8.73;5.03;;;22.10;99.90;;;;;;5066451;28;20055;-73
2021/11/15 11:17:07;;;;;;;13.25;5.30;;;21.90;99.90;;;;;;5066623;28;20405;-72
2021/11/15 11:20:29;;;;;;;10.60;5.75;;;21.20;99.90;;;;;;5067361;28;20391;-72
2021/11/15 11:26:40;;;;;;;10.88;5.88;;;19.90;99.90;;;;;;5068234;28;19908;-72
2021/11/15 11:29:52;;;;;;;11.05;5.60;;;19.70;99.90;;;;;;5061731;28;20494;-73
2021/11/15 11:32:57;;;;;;;10.65;5.78;;;19.70;99.90;;;;;;5058957;28;20052;-73
2021/11/15 11:36:04;;;;;;;8.90;5.60;;;19.70;99.90;;;;;;5068481;28;20056;-73
2021/11/15 11:39:11;;;;;;;14.20;6.75;;;19.70;99.90;;;;;;5060735;28;20048;-72
2021/11/15 11:42:17;;;;;;;12.35;6.53;;;19.40;99.90;;;;;;5062154;28;20040;-72
2021/11/15 11:45:26;;;;;;;9.98;6.57;;;19.20;99.90;;;;;;5061254;28;20044;-72
2021/11/15 11:48:31;;;;;;;12.90;6.20;;;19.10;99.90;;;;;;5065417;28;20505;-73
2021/11/15 11:51:35;;;;;;;11.52;5.85;;;19.10;99.90;;;;;;5058917;28;20040;-72
2021/11/15 11:54:48;;;;;;;10.40;5.95;;;19.10;99.90;;;;;;5060939;28;20052;-72
2021/11/15 11:57:52;;;;;;;11.23;7.07;;;19.10;99.90;;;;;;5061096;28;20047;-73
2021/11/15 12:01:00;;;;;;;10.68;6.20;;;19.00;99.90;;;;;;5064401;28;20474;-73
2021/11/15 12:04:19;;;;;;;9.05;6.32;;;19.00;99.90;;;;;;5063906;28;20032;-72
2021/11/15 12:07:24;;;;;;;10.18;6.45;;;18.80;99.90;;;;;;5057130;28;20048;-72
2021/11/15 12:10:54;;;;;;;10.05;5.57;;;17.90;99.90;;;;;;5064434;28;20044;-73
2021/11/15 12:14:00;;;;;;;13.27;6.30;;;18.50;99.90;;;;;;5061635;28;20044;-73
2021/11/15 12:17:08;;;;;;;7.50;5.53;;;19.20;99.90;;;;;;5059456;28;20423;-72
2021/11/15 12:20:14;;;;;;;9.45;5.82;;;19.50;99.90;;;;;;5062952;28;20036;-73
2021/11/15 12:23:18;;;;;;;15.05;5.82;;;19.70;99.90;;;;;;5069218;28;20039;-72
2021/11/15 12:26:25;;;;;;;8.32;5.50;;;19.70;99.90;;;;;;5066768;28;20043;-72
2021/11/15 12:29:32;;;;;;;10.77;5.82;;;19.70;99.90;;;;;;5065035;28;20047;-73
2021/11/15 12:32:36;;;;;;;9.18;5.32;;;19.50;99.90;;;;;;5060061;28;20051;-72
2021/11/15 12:36:12;;;;;;;15.52;10.05;;;19.40;99.90;;;;;;5068840;28;20052;-73
2021/11/15 12:39:38;;;;;;;15.20;6.95;;;19.40;99.90;;;;;;5060518;28;20040;-72
2021/11/15 12:42:42;;;;;;;12.70;6.15;;;19.50;99.90;;;;;;5066633;28;20055;-72
2021/11/15 12:46:06;;;;;;;7.40;5.00;;;19.60;99.90;;;;;;5065409;28;20052;-72
2021/11/15 12:49:23;;;;;;;6.88;5.05;;;19.50;99.90;;;;;;5063189;28;20047;-72
2021/11/15 12:52:29;;;;;;;11.00;5.15;;;19.60;99.90;;;;;;5056741;28;20044;-72
2021/11/15 12:55:37;;;;;;;8.57;5.68;;;19.80;99.90;;;;;;5062298;28;20047;-73
2021/11/15 12:58:45;;;;;;;6.43;4.60;;;19.30;99.90;;;;;;5065146;28;20067;-72
2021/11/15 13:01:49;;;;;;;13.48;6.50;;;19.40;99.90;;;;;;5068576;28;20036;-73
2021/11/15 13:04:55;;;;;;;14.70;5.85;;;20.10;99.90;;;;;;5069140;28;20059;-73
2021/11/15 13:08:06;;;;;;;11.55;4.78;;;21.10;99.90;;;;;;5068508;28;20052;-72
2021/11/15 13:11:13;;;;;;;7.73;5.17;;;21.70;99.90;;;;;;5068136;28;20043;-73
2021/11/15 13:14:17;;;;;;;6.25;4.78;;;20.40;99.90;;;;;;5066120;28;20036;-72
2021/11/15 13:17:23;;;;;;;10.80;6.57;;;19.80;99.90;;;;;;5064384;28;20494;-72
2021/11/15 13:20:28;;;;;;;9.45;4.68;;;19.80;99.90;;;;;;5063290;28;20407;-72
2021/11/15 13:23:32;;;;;;;10.40;5.15;;;19.70;99.90;;;;;;5062196;28;20415;-72
2021/11/15 13:26:39;;;;;;;9.70;5.75;;;19.50;99.90;;;;;;5064102;28;20035;-72
2021/11/15 13:29:45;;;;;;;11.13;5.80;;;19.40;99.90;;;;;;5065581;28;20050;-72
2021/11/15 13:32:56;;;;;;;11.02;6.38;;;19.40;99.90;;;;;;5066902;28;20067;-72
2021/11/15 13:36:01;;;;;;;14.10;5.88;;;19.40;99.90;;;;;;5064237;28;20052;-72
2021/11/15 13:39:08;;;;;;;11.98;6.75;;;18.40;99.90;;;;;;5056711;28;20497;-73
2021/11/15 13:42:12;;;;;;;12.02;6.80;;;17.50;99.90;;;;;;5057673;28;20039;-73
2021/11/15 13:45:17;;;;;;;8.85;6.40;;;17.20;99.90;;;;;;5062487;28;20079;-72
2021/11/15 13:48:25;;;;;;;13.40;6.68;;;17.40;99.90;;;;;;5057702;28;20052;-72
2021/11/15 13:51:29;;;;;;;11.63;6.72;;;17.60;99.90;;;;;;5055954;28;20052;-72
2021/11/15 13:54:36;;;;;;;11.02;5.82;;;17.80;99.90;;;;;;5060747;28;20043;-73
2021/11/15 13:57:40;;;;;;;12.90;7.03;;;17.80;99.90;;;;;;5054096;28;20195;-72
2021/11/15 14:00:44;;;;;;;16.45;9.15;;;17.70;99.90;;;;;;5060031;28;20047;-72
2021/11/15 14:03:48;;;;;;;35.65;20.67;;;17.60;99.90;;;;;;5058544;28;20119;-72
2021/11/15 14:06:52;;;;;;;37.30;23.10;;;17.40;99.90;;;;;;5064435;28;20044;-72
2021/11/15 14:09:57;;;;;;;27.45;14.90;;;17.30;99.90;;;;;;5055801;28;20597;-72
2021/11/15 14:13:02;;;;;;;17.52;11.27;;;17.10;99.90;;;;;;5061269;28;20060;-72
2021/11/15 14:16:06;;;;;;;27.05;17.33;;;17.00;99.90;;;;;;5059584;28;20043;-72
2021/11/15 14:19:10;;;;;;;17.38;10.98;;;16.90;99.90;;;;;;5062161;28;20119;-73
2021/11/15 14:22:15;;;;;;;16.88;10.13;;;16.70;99.90;;;;;;5060325;28;20036;-72
2021/11/15 14:25:19;;;;;;;14.13;7.40;;;16.60;99.90;;;;;;5060474;28;20040;-72
2021/11/15 14:28:25;;;;;;;11.38;7.60;;;16.50;99.90;;;;;;5054791;28;20059;-72
2021/11/15 14:31:30;;;;;;;11.65;8.38;;;16.40;99.90;;;;;;5060581;28;20051;-72
2021/11/15 14:34:35;;;;;;;13.85;8.88;;;16.30;99.90;;;;;;5060680;28;20503;-72
2021/11/15 14:37:40;;;;;;;11.70;8.85;;;16.20;99.90;;;;;;5058634;28;20052;-72
2021/11/15 14:40:44;;;;;;;15.10;8.80;;;16.10;99.90;;;;;;5057880;28;20511;-72
2021/11/15 14:43:49;;;;;;;13.63;8.07;;;16.10;99.90;;;;;;5061313;28;20039;-72
2021/11/15 14:46:53;;;;;;;7.75;4.90;;;16.10;99.90;;;;;;4991612;28;1724101;-72
2021/11/15 14:49:57;;;;;;;7.85;5.00;;;16.20;99.90;;;;;;5050016;28;20052;-72
2021/11/15 14:53:02;;;;;;;14.93;5.07;;;16.30;99.90;;;;;;5060309;28;20048;-72
2021/11/15 14:56:06;;;;;;;6.18;4.53;;;16.40;99.90;;;;;;5050211;28;20048;-71
2021/11/15 14:59:10;;;;;;;14.00;3.80;;;16.50;99.90;;;;;;5050627;28;20502;-73
2021/11/15 15:02:15;;;;;;;6.20;3.95;;;16.70;99.90;;;;;;5059300;28;20394;-72
2021/11/15 15:05:20;;;;;;;10.65;4.25;;;16.70;99.90;;;;;;5059947;28;20438;-73
2021/11/15 15:08:24;;;;;;;10.38;4.90;;;16.60;99.90;;;;;;5062300;28;20043;-72
2021/11/15 15:11:29;;;;;;;6.95;4.25;;;16.60;99.90;;;;;;5055395;28;20403;-72
2021/11/15 15:14:34;;;;;;;8.52;4.32;;;16.50;99.90;;;;;;5058600;28;20649;-72
2021/11/15 15:17:39;;;;;;;9.10;3.95;;;16.40;99.90;;;;;;5049882;28;20059;-72
2021/11/15 15:20:43;;;;;;;8.02;3.78;;;16.40;99.90;;;;;;5065956;28;20040;-72
2021/11/15 15:23:47;;;;;;;12.10;5.68;;;16.20;99.90;;;;;;5059240;28;20399;-72
2021/11/15 15:26:52;;;;;;;11.10;5.95;;;16.20;99.90;;;;;;5061956;28;20052;-72
2021/11/15 15:29:57;;;;;;;7.35;4.22;;;16.10;99.90;;;;;;5062272;28;20051;-72
2021/11/15 15:33:03;;;;;;;10.00;5.85;;;16.00;99.90;;;;;;5063021;28;20040;-72
2021/11/15 15:36:08;;;;;;;6.55;4.22;;;15.90;99.90;;;;;;5063258;28;20064;-73
2021/11/15 15:39:14;;;;;;;7.20;4.25;;;15.80;99.90;;;;;;5053864;28;20403;-72
2021/11/15 15:42:19;;;;;;;16.63;5.57;;;15.60;99.90;;;;;;5052832;28;20036;-72
2021/11/15 15:45:25;;;;;;;6.75;4.43;;;15.50;99.90;;;;;;5056834;28;20502;-72
2021/11/15 15:48:34;;;;;;;9.80;4.85;;;15.50;99.90;;;;;;5062811;28;20509;-72
2021/11/15 15:51:38;;;;;;;11.63;5.40;;;15.50;99.90;;;;;;5060761;28;20512;-73
2021/11/15 15:54:42;;;;;;;9.40;4.93;;;15.40;99.90;;;;;;5062729;28;20502;-72